Crestwood, Kentucky
Current Conditions -  °F | °C
As of 2:53 AM on Friday 19 Dec 2014 (Local Time) from KLOU Reporting Station
Overcast Overcast  
Wind Chill: 31°   Ceiling: 7000
Heat Index: 31°   Visibility: 9mi
Dew Point: 23°   Wind: 3mph
Humidity: 72%   Direction: 350°N
Pressure: 30.26"   Gusts: NA
Location:  38.32°N, 85.47°W
Report Text: KLOU 190753Z AUTO 35003KT 9SM OVC070 M01/M05 A3026 RMK AO2 SLP253 T10061050
Loading
Personal Weather Stations






























Interactive Weather Map New forecast layout! Learn more

10-Day Weather Forecast

Advertisements
Track Severe Weather on mobile